Terminal Aerodrome Forecast
Issued by NWS

Home | Current Version | Previous Version | Text Only | Print | Product List | Glossary On
Versions: 1 2 3 4 5 6 7 8 9 10 11 12 13 14 15
000
FTUS44 KOUN 201736
TAFPNC
TAF
KPNC 201736Z 2018/2118 19010G18KT P6SM BKN040
     FM210000 15008KT P6SM SKC
     FM211200 14009KT P6SM BKN020 WS015/21032KT
     FM211500 16010G18KT P6SM BKN025=

USA.gov is the U.S. government's official web portal to all federal, state and local government web resources and services.